Time;durP1;ratioP1;P1;durP2;ratioP2;P2;SDS_P1;SDS_P2;PMS_P1;PMS_P2;Temp;Humidity;BMP_temperature;BMP_pressure;BME280_temperature;BME280_humidity;BME280_pressure;Samples;Min_cycle;Max_cycle;Signal;HPM_P1;HPM_P2
2021/03/23 00:01:09;;;;;;;5.45;2.60;;;7.50;79.40;;;;;;4888282;29;20397;-71
2021/03/23 00:03:41;;;;;;;4.72;2.33;;;7.50;79.40;;;;;;4894839;29;20479;-71
2021/03/23 00:06:11;;;;;;;3.90;2.00;;;7.50;79.50;;;;;;4887882;29;20546;-72
2021/03/23 00:08:40;;;;;;;4.00;1.97;;;7.50;79.50;;;;;;4878167;29;20056;-73
2021/03/23 00:11:21;;;;;;;4.57;2.30;;;7.50;79.60;;;;;;4872015;29;20048;-72
2021/03/23 00:13:49;;;;;;;4.43;2.47;;;7.50;79.50;;;;;;4887982;29;20045;-71
2021/03/23 00:16:20;;;;;;;4.33;2.30;;;7.50;79.50;;;;;;4891011;29;20045;-72
2021/03/23 00:18:47;;;;;;;4.00;2.00;;;7.50;79.50;;;;;;4882044;29;20553;-68
2021/03/23 00:21:14;;;;;;;4.07;1.93;;;7.50;79.60;;;;;;4872384;29;20366;-68
2021/03/23 00:23:42;;;;;;;4.47;2.20;;;7.50;79.60;;;;;;4885064;29;20097;-68
2021/03/23 00:26:11;;;;;;;4.30;2.30;;;7.50;79.60;;;;;;4903121;29;20499;-68
2021/03/23 00:28:39;;;;;;;3.47;1.97;;;7.50;79.60;;;;;;4866868;29;20078;-68
2021/03/23 00:31:06;;;;;;;3.30;1.63;;;7.50;79.70;;;;;;4872523;29;20119;-68
2021/03/23 00:33:52;;;;;;;4.37;1.87;;;7.50;79.80;;;;;;4888606;29;20128;-68
2021/03/23 00:36:22;;;;;;;3.07;1.80;;;7.50;79.80;;;;;;4869417;29;20092;-68
2021/03/23 00:38:51;;;;;;;3.20;1.60;;;7.50;79.80;;;;;;4879408;29;20057;-68
2021/03/23 00:41:18;;;;;;;3.87;1.37;;;7.50;79.80;;;;;;4868371;29;20060;-68
2021/03/23 00:43:44;;;;;;;2.80;1.45;;;7.50;79.80;;;;;;4869135;29;20446;-69
2021/03/23 00:46:11;;;;;;;3.83;1.52;;;7.50;79.90;;;;;;4885239;29;20582;-68
2021/03/23 00:48:37;;;;;;;3.13;1.60;;;7.50;80.00;;;;;;4882883;29;20056;-68
2021/03/23 00:51:05;;;;;;;4.18;2.30;;;7.50;79.90;;;;;;4862627;29;20047;-72
2021/03/23 00:53:32;;;;;;;4.88;2.17;;;7.50;79.80;;;;;;4860446;29;20049;-72
2021/03/23 00:56:01;;;;;;;6.25;2.40;;;7.50;79.60;;;;;;4877034;29;20451;-73
2021/03/23 00:58:28;;;;;;;3.73;1.67;;;7.50;79.60;;;;;;4872309;29;20037;-73
2021/03/23 01:00:55;;;;;;;4.43;2.03;;;7.50;79.70;;;;;;4874690;29;20072;-69
2021/03/23 01:03:22;;;;;;;3.87;1.80;;;7.50;79.70;;;;;;4867053;29;20132;-69
2021/03/23 01:05:50;;;;;;;4.00;1.63;;;7.40;79.60;;;;;;4866654;29;20045;-69
2021/03/23 01:08:17;;;;;;;5.35;1.88;;;7.50;79.60;;;;;;4872991;29;20053;-69
2021/03/23 01:10:44;;;;;;;3.28;1.55;;;7.50;79.60;;;;;;4888884;29;20048;-69
2021/03/23 01:13:11;;;;;;;4.07;2.17;;;7.50;79.60;;;;;;4893013;29;20143;-69
2021/03/23 01:15:38;;;;;;;4.07;1.77;;;7.50;79.60;;;;;;4883649;29;20053;-69
2021/03/23 01:18:05;;;;;;;4.20;2.03;;;7.40;79.50;;;;;;4885429;29;20507;-68
2021/03/23 01:20:33;;;;;;;3.70;1.70;;;7.40;79.50;;;;;;4878970;29;20116;-68
2021/03/23 01:22:59;;;;;;;3.30;1.80;;;7.40;79.40;;;;;;4894158;29;20038;-69
2021/03/23 01:25:26;;;;;;;3.87;1.97;;;7.50;79.40;;;;;;4881248;29;20041;-69
2021/03/23 01:27:53;;;;;;;3.37;1.50;;;7.40;79.30;;;;;;4896488;29;20040;-68
2021/03/23 01:30:26;;;;;;;4.70;1.93;;;7.40;80.00;;;;;;4877545;29;20044;-69
2021/03/23 01:32:53;;;;;;;;;;;7.40;79.40;;;;;;4884569;29;20045;-69
2021/03/23 01:35:21;;;;;;;3.70;1.53;;;7.40;79.50;;;;;;4864400;29;19927;-72
2021/03/23 01:37:48;;;;;;;3.93;1.70;;;7.40;79.50;;;;;;4899215;29;20060;-72
2021/03/23 01:40:17;;;;;;;4.47;1.83;;;7.40;79.50;;;;;;4893550;29;20045;-73
2021/03/23 01:42:50;;;;;;;3.45;1.67;;;7.40;79.40;;;;;;4877332;29;20046;-72
2021/03/23 01:45:38;;;;;;;4.67;1.77;;;7.40;79.40;;;;;;4874546;29;20044;-73
2021/03/23 01:48:15;;;;;;;3.00;1.30;;;7.40;79.40;;;;;;4893358;29;20112;-73
2021/03/23 01:50:49;;;;;;;3.47;1.37;;;7.40;79.50;;;;;;4874802;29;20045;-72
2021/03/23 01:53:34;;;;;;;4.20;1.80;;;7.40;79.50;;;;;;4878811;29;20041;-72
2021/03/23 01:56:06;;;;;;;4.03;1.55;;;7.40;79.50;;;;;;4889527;29;20064;-72
2021/03/23 01:58:36;;;;;;;2.27;1.23;;;7.40;79.60;;;;;;4885703;29;20080;-72
2021/03/23 02:01:05;;;;;;;3.05;1.33;;;7.40;79.60;;;;;;4875130;29;20156;-69
2021/03/23 02:03:32;;;;;;;2.95;1.35;;;7.40;79.60;;;;;;4867163;29;20052;-69
2021/03/23 02:06:01;;;;;;;3.03;1.20;;;7.40;79.70;;;;;;4877121;29;20045;-68
2021/03/23 02:08:28;;;;;;;2.97;1.30;;;7.40;79.70;;;;;;4872808;29;20049;-68
2021/03/23 02:10:58;;;;;;;2.97;1.23;;;7.40;79.70;;;;;;4877265;29;20037;-69
2021/03/23 02:13:25;;;;;;;2.17;1.38;;;7.50;79.80;;;;;;4873626;29;20046;-72
2021/03/23 02:15:51;;;;;;;3.72;1.80;;;7.40;79.50;;;;;;4877406;29;20041;-72
2021/03/23 02:18:24;;;;;;;3.55;1.67;;;7.40;79.50;;;;;;4876797;29;20052;-72
2021/03/23 02:21:00;;;;;;;4.20;1.25;;;7.40;79.50;;;;;;4878946;29;20033;-72
2021/03/23 02:23:31;;;;;;;4.85;2.75;;;7.40;79.50;;;;;;4870629;29;20042;-72
2021/03/23 02:25:58;;;;;;;3.60;1.67;;;7.40;79.50;;;;;;4875692;29;20448;-72
2021/03/23 02:28:25;;;;;;;4.20;2.10;;;7.40;79.40;;;;;;4869273;29;20164;-72
2021/03/23 02:30:52;;;;;;;3.50;1.67;;;7.40;79.40;;;;;;4867072;29;20093;-72
2021/03/23 02:33:20;;;;;;;3.92;2.00;;;7.40;79.40;;;;;;4872801;29;20037;-72
2021/03/23 02:35:47;;;;;;;3.57;1.80;;;7.40;79.40;;;;;;4873472;29;20052;-72
2021/03/23 02:38:14;;;;;;;4.97;2.22;;;7.40;79.50;;;;;;4871786;29;20060;-72
2021/03/23 02:40:42;;;;;;;4.57;2.22;;;7.30;79.50;;;;;;4871905;29;20053;-72
2021/03/23 02:43:09;;;;;;;3.73;1.70;;;7.40;79.50;;;;;;4875856;29;20098;-72
2021/03/23 02:45:39;;;;;;;4.77;2.13;;;7.40;79.60;;;;;;4879490;29;20045;-72
2021/03/23 02:48:07;;;;;;;4.47;2.30;;;7.30;79.50;;;;;;4882356;29;20462;-72
2021/03/23 02:50:33;;;;;;;5.22;2.88;;;7.30;79.60;;;;;;4881550;29;20057;-72
2021/03/23 02:53:00;;;;;;;5.93;2.83;;;7.30;79.60;;;;;;4877363;29;20061;-72
2021/03/23 02:55:27;;;;;;;4.57;2.47;;;7.30;79.60;;;;;;4872642;29;20052;-72
2021/03/23 02:57:53;;;;;;;4.57;1.67;;;7.30;79.70;;;;;;4870966;29;20418;-72
2021/03/23 03:00:20;;;;;;;3.83;2.05;;;7.30;79.70;;;;;;4880066;29;20032;-72
2021/03/23 03:02:51;;;;;;;5.63;2.40;;;7.30;79.80;;;;;;4879381;29;20041;-68
2021/03/23 03:05:18;;;;;;;4.60;2.37;;;7.30;79.80;;;;;;4879065;29;20041;-68
2021/03/23 03:07:45;;;;;;;5.07;3.10;;;7.30;79.90;;;;;;4869998;29;20053;-68
2021/03/23 03:10:12;;;;;;;6.57;3.67;;;7.30;79.90;;;;;;4876824;29;20076;-68
2021/03/23 03:12:39;;;;;;;5.47;3.00;;;7.30;79.80;;;;;;4874449;29;20048;-69
2021/03/23 03:15:06;;;;;;;6.13;3.67;;;7.30;79.80;;;;;;4881217;29;20045;-68
2021/03/23 03:17:33;;;;;;;5.47;3.23;;;7.30;79.80;;;;;;4872412;29;20049;-72
2021/03/23 03:20:00;;;;;;;4.80;2.83;;;7.30;79.90;;;;;;4875112;29;20045;-72
2021/03/23 03:22:26;;;;;;;7.23;4.00;;;7.30;79.90;;;;;;4878682;29;20045;-72
2021/03/23 03:24:53;;;;;;;7.43;3.77;;;7.30;79.90;;;;;;4879865;29;20081;-69
2021/03/23 03:27:19;;;;;;;6.37;3.47;;;7.20;79.90;;;;;;4894685;29;20500;-69
2021/03/23 03:29:46;;;;;;;6.67;3.50;;;7.30;80.00;;;;;;4878037;29;20048;-69
2021/03/23 03:32:12;;;;;;;6.50;3.13;;;7.30;80.60;;;;;;4880399;29;20049;-72
2021/03/23 03:34:39;;;;;;;5.83;2.90;;;7.20;80.10;;;;;;4881185;29;20537;-72
2021/03/23 03:37:06;;;;;;;6.60;3.53;;;7.20;80.10;;;;;;4880026;29;20105;-72
2021/03/23 03:39:33;;;;;;;5.30;2.70;;;7.30;80.30;;;;;;4879664;29;20097;-72
2021/03/23 03:42:00;;;;;;;6.60;3.30;;;7.30;80.40;;;;;;4876781;29;20052;-72
2021/03/23 03:44:27;;;;;;;5.95;3.05;;;7.20;80.30;;;;;;4867779;29;20049;-72
2021/03/23 03:46:53;;;;;;;5.57;3.27;;;7.30;80.40;;;;;;4879907;29;20049;-72
2021/03/23 03:49:20;;;;;;;5.23;2.97;;;7.30;80.40;;;;;;4878757;29;20048;-72
2021/03/23 03:51:46;;;;;;;6.17;3.73;;;7.30;80.60;;;;;;4862029;29;20049;-73
2021/03/23 03:54:13;;;;;;;8.67;4.60;;;7.20;80.60;;;;;;4875722;29;20105;-73
2021/03/23 03:56:40;;;;;;;8.53;3.97;;;7.20;80.60;;;;;;4880383;29;20049;-73
2021/03/23 03:59:07;;;;;;;9.33;4.83;;;7.20;80.60;;;;;;4877008;29;20425;-74
2021/03/23 04:01:33;;;;;;;7.20;3.97;;;7.20;80.60;;;;;;4879360;29;20049;-73
2021/03/23 04:04:00;;;;;;;7.47;3.90;;;7.20;80.70;;;;;;4877165;29;20794;-73
2021/03/23 04:06:38;;;;;;;7.77;4.00;;;7.10;80.60;;;;;;4875237;29;20045;-73
2021/03/23 04:09:05;;;;;;;7.10;4.10;;;7.10;80.70;;;;;;4876970;29;20389;-73
2021/03/23 04:11:32;;;;;;;6.77;3.80;;;7.10;80.70;;;;;;4878662;29;20367;-73
2021/03/23 04:13:59;;;;;;;9.67;5.83;;;7.10;80.60;;;;;;4879920;29;20431;-73
2021/03/23 04:16:26;;;;;;;8.30;5.23;;;7.10;80.60;;;;;;4872008;29;20044;-72
2021/03/23 04:18:52;;;;;;;7.50;4.30;;;7.10;80.60;;;;;;4874857;29;20557;-73
2021/03/23 04:21:19;;;;;;;10.23;5.67;;;7.10;80.60;;;;;;4895105;29;20044;-72
2021/03/23 04:23:46;;;;;;;8.83;4.70;;;7.10;80.60;;;;;;4873641;29;20046;-73
2021/03/23 04:26:13;;;;;;;10.23;5.47;;;7.10;80.70;;;;;;4879979;29;20101;-72
2021/03/23 04:28:40;;;;;;;9.47;5.60;;;7.10;80.60;;;;;;4876752;29;20049;-72
2021/03/23 04:31:08;;;;;;;10.67;5.73;;;7.10;80.70;;;;;;4879579;29;20049;-73
2021/03/23 04:33:35;;;;;;;11.60;5.60;;;7.00;80.60;;;;;;4865099;29;20034;-72
2021/03/23 04:36:07;;;;;;;10.90;7.20;;;7.00;80.70;;;;;;4872114;29;20047;-68
2021/03/23 04:38:37;;;;;;;9.02;5.45;;;7.00;80.70;;;;;;4888140;29;20050;-68
2021/03/23 04:41:07;;;;;;;9.23;5.10;;;7.00;80.70;;;;;;4868371;29;20104;-68
2021/03/23 04:43:36;;;;;;;9.33;5.80;;;7.00;80.80;;;;;;4880032;29;20382;-68
2021/03/23 04:46:03;;;;;;;10.00;5.50;;;6.90;80.80;;;;;;4876385;29;20401;-69
2021/03/23 04:48:30;;;;;;;8.47;4.80;;;6.90;81.00;;;;;;4877721;29;20045;-69
2021/03/23 04:50:57;;;;;;;10.40;6.17;;;6.90;81.00;;;;;;4892891;29;20501;-69
2021/03/23 04:53:33;;;;;;;10.10;5.37;;;6.90;81.00;;;;;;4873777;29;20464;-69
2021/03/23 04:56:00;;;;;;;11.13;6.03;;;6.90;81.00;;;;;;4878931;29;20049;-68
2021/03/23 04:58:27;;;;;;;9.37;5.27;;;6.90;81.00;;;;;;4869784;29;20057;-69
2021/03/23 05:00:55;;;;;;;9.75;5.57;;;6.90;81.00;;;;;;4874328;29;20049;-69
2021/03/23 05:03:29;;;;;;;9.90;5.18;;;6.90;81.10;;;;;;4870921;29;20045;-69
2021/03/23 05:06:07;;;;;;;9.73;5.20;;;6.90;81.10;;;;;;4883696;29;20065;-68
2021/03/23 05:08:43;;;;;;;9.02;4.80;;;6.90;81.20;;;;;;4876806;29;20109;-69
2021/03/23 05:11:12;;;;;;;10.40;5.28;;;6.90;81.20;;;;;;4873822;29;20052;-69
2021/03/23 05:13:39;;;;;;;9.40;5.27;;;6.90;81.20;;;;;;4878369;29;20041;-69
2021/03/23 05:16:06;;;;;;;8.07;4.40;;;6.90;81.20;;;;;;4870246;29;20104;-70
2021/03/23 05:18:32;;;;;;;7.73;4.17;;;6.90;81.20;;;;;;4876076;29;20055;-70
2021/03/23 05:20:59;;;;;;;9.17;4.73;;;6.90;81.30;;;;;;4873273;29;20128;-70
2021/03/23 05:23:26;;;;;;;7.93;4.47;;;6.90;81.30;;;;;;4870077;29;20037;-70
2021/03/23 05:25:52;;;;;;;7.00;4.10;;;6.90;81.40;;;;;;4877130;29;20481;-70
2021/03/23 05:28:19;;;;;;;9.97;5.83;;;6.90;81.40;;;;;;4875360;29;20064;-70
2021/03/23 05:30:46;;;;;;;8.93;5.77;;;6.80;81.40;;;;;;4876601;29;20450;-70
2021/03/23 05:33:14;;;;;;;9.37;5.07;;;6.80;81.40;;;;;;4876266;29;20618;-70
2021/03/23 05:35:42;;;;;;;8.70;4.83;;;6.80;81.40;;;;;;4873381;29;20045;-69
2021/03/23 05:38:08;;;;;;;9.50;5.33;;;6.80;81.50;;;;;;4876455;29;20037;-69
2021/03/23 05:41:00;;;;;;;7.97;4.37;;;6.80;81.60;;;;;;4877205;29;20060;-69
2021/03/23 05:43:54;;;;;;;8.73;5.27;;;6.80;81.60;;;;;;4871200;29;20547;-69
2021/03/23 05:46:34;;;;;;;8.33;4.10;;;6.80;81.70;;;;;;4875134;29;20096;-69
2021/03/23 05:49:10;;;;;;;8.53;4.77;;;6.70;81.70;;;;;;4877852;29;20120;-69
2021/03/23 05:51:43;;;;;;;8.50;4.67;;;6.70;81.80;;;;;;4877430;29;20053;-69
2021/03/23 05:54:20;;;;;;;9.63;5.60;;;6.70;81.90;;;;;;4872322;29;20120;-69
2021/03/23 05:56:54;;;;;;;10.27;5.70;;;6.70;81.90;;;;;;4868775;29;20671;-69
2021/03/23 05:59:38;;;;;;;11.27;6.33;;;6.60;81.90;;;;;;4871966;29;20041;-69
2021/03/23 06:02:15;;;;;;;10.00;6.23;;;6.60;82.00;;;;;;4873269;29;20056;-69
2021/03/23 06:04:49;;;;;;;10.23;5.70;;;6.50;82.10;;;;;;4889647;29;20063;-68
2021/03/23 06:07:17;;;;;;;9.50;5.53;;;6.50;82.20;;;;;;4869769;29;20044;-69
2021/03/23 06:09:44;;;;;;;10.23;5.53;;;6.40;82.30;;;;;;4873532;29;20097;-69
2021/03/23 06:12:23;;;;;;;9.97;5.27;;;6.40;82.40;;;;;;4867131;29;20516;-69
2021/03/23 06:15:22;;;;;;;9.10;4.97;;;6.40;82.60;;;;;;4874162;29;20093;-70
2021/03/23 06:17:56;;;;;;;10.70;5.23;;;6.30;82.70;;;;;;4869797;29;20556;-73
2021/03/23 06:20:33;;;;;;;8.23;4.90;;;6.30;82.90;;;;;;4873609;29;20049;-73
2021/03/23 06:23:29;;;;;;;7.47;4.00;;;6.20;83.00;;;;;;4883990;29;20056;-73
2021/03/23 06:26:34;;;;;;;8.83;4.17;;;6.30;83.10;;;;;;4871361;29;20061;-73
2021/03/23 06:29:24;;;;;;;8.63;4.37;;;6.30;83.10;;;;;;4874781;29;20045;-73
2021/03/23 06:32:15;;;;;;;7.53;4.30;;;6.30;83.10;;;;;;4843403;29;20086;-73
2021/03/23 06:34:43;;;;;;;9.67;4.80;;;6.40;83.00;;;;;;4882159;29;20041;-73
2021/03/23 06:37:26;;;;;;;8.63;4.33;;;6.40;82.80;;;;;;4874286;29;20501;-73
2021/03/23 06:39:53;;;;;;;9.83;5.53;;;6.50;82.60;;;;;;4874924;29;20049;-73
2021/03/23 06:42:41;;;;;;;8.90;4.97;;;6.60;82.50;;;;;;4871334;29;20109;-73
2021/03/23 06:45:37;;;;;;;9.10;4.97;;;6.70;82.40;;;;;;4867209;29;20045;-73
2021/03/23 06:48:24;;;;;;;8.87;4.43;;;6.70;82.20;;;;;;4869735;29;20504;-73
2021/03/23 06:51:10;;;;;;;7.78;4.32;;;6.80;82.30;;;;;;4873354;29;20494;-72
2021/03/23 06:53:38;;;;;;;9.07;4.83;;;6.80;82.30;;;;;;4877282;29;20053;-73
2021/03/23 06:56:26;;;;;;;8.73;5.20;;;6.80;82.30;;;;;;4873501;29;20097;-75
2021/03/23 06:59:10;;;;;;;10.37;5.37;;;6.90;82.30;;;;;;4873087;29;20044;-73
2021/03/23 07:01:42;;;;;;;11.90;6.90;;;6.90;82.40;;;;;;4872742;29;20045;-73
2021/03/23 07:04:35;;;;;;;12.65;6.75;;;6.90;82.40;;;;;;4881148;29;20456;-73
2021/03/23 07:07:14;;;;;;;14.98;7.80;;;6.90;82.30;;;;;;4886477;29;20371;-74
2021/03/23 07:09:48;;;;;;;10.93;6.03;;;6.90;82.30;;;;;;4874916;29;20061;-72
2021/03/23 07:12:15;;;;;;;10.33;6.43;;;6.90;82.20;;;;;;4875877;29;20072;-73
2021/03/23 07:14:48;;;;;;;13.53;7.27;;;6.90;82.20;;;;;;4876714;29;20053;-73
2021/03/23 07:17:21;;;;;;;11.50;7.05;;;7.00;82.30;;;;;;4874678;29;20401;-74
2021/03/23 07:20:08;;;;;;;14.67;8.17;;;7.10;82.30;;;;;;4877647;29;20040;-74
2021/03/23 07:22:45;;;;;;;16.73;9.57;;;7.20;82.20;;;;;;4882477;29;20041;-73
2021/03/23 07:25:41;;;;;;;18.70;9.87;;;7.30;82.10;;;;;;4877721;29;20048;-74
2021/03/23 07:28:24;;;;;;;21.50;11.17;;;7.40;82.00;;;;;;4877972;29;20497;-73
2021/03/23 07:31:22;;;;;;;24.10;11.90;;;7.40;81.90;;;;;;4880641;29;20509;-73
2021/03/23 07:34:04;;;;;;;25.75;13.70;;;7.40;82.00;;;;;;4853867;29;20132;-73
2021/03/23 07:36:58;;;;;;;25.13;12.25;;;7.50;82.10;;;;;;4879007;29;20394;-72
2021/03/23 07:39:35;;;;;;;23.10;11.90;;;7.60;82.10;;;;;;4879173;29;20045;-73
2021/03/23 07:42:34;;;;;;;24.58;12.23;;;7.70;82.10;;;;;;4892175;29;20061;-75
2021/03/23 07:45:20;;;;;;;27.42;14.73;;;7.80;81.90;;;;;;4872807;29;20128;-73
2021/03/23 07:47:56;;;;;;;27.27;13.85;;;7.90;81.70;;;;;;4873974;29;20803;-73
2021/03/23 07:50:29;;;;;;;32.88;17.15;;;8.00;81.70;;;;;;4877370;29;20045;-73
2021/03/23 07:53:05;;;;;;;33.38;18.60;;;8.00;81.80;;;;;;4886532;29;20089;-74
2021/03/23 07:55:34;;;;;;;31.08;17.17;;;7.90;81.80;;;;;;4880073;29;20119;-74
2021/03/23 07:58:01;;;;;;;29.98;17.33;;;7.90;82.00;;;;;;4879634;29;20569;-73
2021/03/23 08:00:45;;;;;;;29.83;15.80;;;8.00;82.10;;;;;;4878259;29;20113;-73
2021/03/23 08:03:41;;;;;;;30.73;16.55;;;8.10;82.10;;;;;;4879347;29;20426;-73
2021/03/23 08:06:44;;;;;;;28.98;14.80;;;8.20;82.10;;;;;;4878203;29;20060;-72
2021/03/23 08:09:25;;;;;;;32.38;15.18;;;8.20;81.90;;;;;;4869888;29;20044;-73
2021/03/23 08:12:40;;;;;;;32.73;18.17;;;8.30;81.90;;;;;;4878279;29;20483;-74
2021/03/23 08:15:14;;;;;;;40.77;20.07;;;8.30;81.90;;;;;;4871135;29;20049;-70
2021/03/23 08:18:13;;;;;;;39.70;21.67;;;8.20;82.10;;;;;;4879113;29;20057;-69
2021/03/23 08:21:09;;;;;;;39.88;21.45;;;8.30;82.10;;;;;;4875565;29;20041;-69
2021/03/23 08:23:35;;;;;;;39.20;19.83;;;8.40;81.80;;;;;;4874850;29;20050;-69
2021/03/23 08:26:25;;;;;;;37.85;19.42;;;8.50;81.90;;;;;;4878329;29;20094;-69
2021/03/23 08:29:23;;;;;;;38.58;20.17;;;8.50;81.80;;;;;;4874213;29;20045;-69
2021/03/23 08:32:05;;;;;;;36.17;19.88;;;8.60;81.80;;;;;;4891861;29;20049;-69
2021/03/23 08:34:48;;;;;;;38.88;22.00;;;8.60;81.70;;;;;;4873984;29;20059;-69
2021/03/23 08:37:35;;;;;;;46.72;24.77;;;8.60;81.60;;;;;;4867000;29;20125;-69
2021/03/23 08:40:06;;;;;;;40.03;20.23;;;8.50;81.70;;;;;;4878033;29;20057;-69
2021/03/23 08:42:33;;;;;;;35.65;19.60;;;8.50;81.90;;;;;;4878035;29;20044;-69
2021/03/23 08:45:08;;;;;;;36.38;20.27;;;8.50;82.00;;;;;;4857958;29;20073;-69
2021/03/23 08:47:49;;;;;;;33.92;18.23;;;8.50;82.00;;;;;;4872103;29;20046;-69
2021/03/23 08:50:42;;;;;;;35.08;18.42;;;8.50;82.10;;;;;;4879860;29;20076;-69
2021/03/23 08:53:28;;;;;;;;;;;8.50;82.10;;;;;;4877830;29;20057;-69
2021/03/23 08:55:55;;;;;;;34.20;19.30;;;8.40;82.20;;;;;;4875189;29;19927;-69
2021/03/23 08:58:37;;;;;;;39.95;19.67;;;8.30;83.00;;;;;;4879015;29;20069;-69
2021/03/23 09:01:05;;;;;;;39.83;20.23;;;8.30;82.50;;;;;;4869926;29;20045;-69
2021/03/23 09:03:48;;;;;;;40.40;21.65;;;8.20;82.70;;;;;;4877443;29;20444;-69
2021/03/23 09:06:18;;;;;;;39.47;19.17;;;8.20;83.50;;;;;;4878494;29;20052;-69
2021/03/23 09:08:53;;;;;;;42.83;19.38;;;8.10;83.10;;;;;;4877808;29;20353;-69
2021/03/23 09:11:52;;;;;;;32.60;17.27;;;8.10;83.20;;;;;;4879284;29;20462;-69
2021/03/23 09:14:23;;;;;;;35.27;18.17;;;8.10;83.30;;;;;;4861880;29;22394;-69
2021/03/23 09:16:59;;;;;;;34.03;17.83;;;8.10;83.40;;;;;;4874150;29;20128;-69
2021/03/23 09:19:41;;;;;;;36.35;17.17;;;8.10;83.50;;;;;;4879202;29;20041;-69
2021/03/23 09:22:33;;;;;;;35.90;16.67;;;8.10;83.60;;;;;;4876412;29;20045;-69
2021/03/23 09:25:23;;;;;;;32.00;15.45;;;8.10;83.70;;;;;;4883151;29;20294;-69
2021/03/23 09:27:50;;;;;;;30.33;16.02;;;8.10;83.80;;;;;;4881938;29;20053;-69
2021/03/23 09:30:54;;;;;;;35.60;16.10;;;8.10;84.00;;;;;;4878511;29;20045;-69
2021/03/23 09:33:24;;;;;;;34.63;16.00;;;8.10;84.00;;;;;;4871837;29;20048;-69
2021/03/23 09:36:14;;;;;;;31.02;15.80;;;8.10;84.20;;;;;;4885889;29;20041;-69
2021/03/23 09:38:40;;;;;;;29.45;13.93;;;8.10;84.20;;;;;;4877537;29;20104;-69
2021/03/23 09:41:25;;;;;;;32.30;16.45;;;8.20;84.20;;;;;;4877736;29;20049;-68
2021/03/23 09:44:13;;;;;;;30.15;14.20;;;8.30;84.20;;;;;;4874135;29;20367;-69
2021/03/23 09:46:53;;;;;;;29.42;14.70;;;8.30;84.10;;;;;;4874707;29;20037;-69
2021/03/23 09:49:28;;;;;;;29.10;13.85;;;8.30;84.10;;;;;;4873153;29;20049;-71
2021/03/23 09:52:01;;;;;;;31.27;14.40;;;8.40;84.10;;;;;;4871140;29;20045;-73
2021/03/23 09:54:37;;;;;;;27.30;13.52;;;8.40;84.10;;;;;;4875346;29;20037;-72
2021/03/23 09:57:17;;;;;;;27.17;14.68;;;8.40;84.10;;;;;;4878812;29;20053;-72
2021/03/23 10:00:25;;;;;;;27.80;13.63;;;8.50;84.10;;;;;;4877282;29;20041;-72
2021/03/23 10:02:53;;;;;;;32.00;14.95;;;8.50;84.00;;;;;;4877713;29;20490;-73
2021/03/23 10:05:26;;;;;;;28.85;12.95;;;8.50;84.10;;;;;;4868241;29;20505;-72
2021/03/23 10:08:09;;;;;;;36.30;16.27;;;8.50;84.20;;;;;;4877117;29;20593;-73
2021/03/23 10:10:35;;;;;;;35.43;16.47;;;8.50;84.30;;;;;;4877256;29;20045;-73
2021/03/23 10:13:26;;;;;;;32.55;15.85;;;8.40;84.30;;;;;;4877222;29;20353;-73
2021/03/23 10:15:55;;;;;;;27.17;13.50;;;8.40;84.30;;;;;;4874677;29;20037;-73
2021/03/23 10:18:27;;;;;;;26.13;13.43;;;8.40;84.40;;;;;;4861975;29;20557;-73
2021/03/23 10:21:01;;;;;;;25.93;12.90;;;8.50;84.50;;;;;;4876946;29;20404;-73
2021/03/23 10:23:30;;;;;;;25.38;12.75;;;8.60;84.50;;;;;;4877918;29;20049;-73
2021/03/23 10:25:58;;;;;;;30.63;14.73;;;8.60;84.40;;;;;;4890875;29;20405;-73
2021/03/23 10:28:37;;;;;;;29.27;13.37;;;8.60;84.20;;;;;;4868008;29;20401;-73
2021/03/23 10:31:10;;;;;;;29.58;14.75;;;8.70;84.20;;;;;;4866188;29;20056;-73
2021/03/23 10:33:40;;;;;;;32.90;17.00;;;8.70;84.10;;;;;;4876370;29;20060;-73
2021/03/23 10:36:12;;;;;;;37.17;18.10;;;8.70;84.10;;;;;;4865188;29;20446;-73
2021/03/23 10:38:43;;;;;;;34.27;16.00;;;8.70;84.10;;;;;;4877765;29;20045;-73
2021/03/23 10:41:19;;;;;;;26.75;14.13;;;8.70;84.20;;;;;;4878269;29;20406;-72
2021/03/23 10:43:52;;;;;;;27.08;14.00;;;8.80;84.20;;;;;;4874423;29;20108;-73
2021/03/23 10:46:37;;;;;;;;;;;8.80;84.20;;;;;;4865917;29;20041;-72
2021/03/23 10:49:20;;;;;;;32.80;16.02;;;8.90;84.20;;;;;;4878154;29;19927;-73
2021/03/23 10:51:49;;;;;;;35.35;17.60;;;8.90;84.10;;;;;;4876792;29;20053;-73
2021/03/23 10:54:26;;;;;;;31.00;15.48;;;8.90;83.90;;;;;;4877169;29;20043;-73
2021/03/23 10:56:59;;;;;;;30.42;15.73;;;9.00;83.80;;;;;;4869992;29;20038;-73
2021/03/23 10:59:30;;;;;;;36.10;17.47;;;9.00;83.90;;;;;;4874237;29;20382;-73
2021/03/23 11:02:11;;;;;;;33.10;17.57;;;9.00;83.90;;;;;;4868712;29;20050;-72
2021/03/23 11:04:55;;;;;;;34.50;16.70;;;9.10;83.90;;;;;;4870719;29;21605;-68
2021/03/23 11:07:25;;;;;;;38.85;19.40;;;9.00;83.80;;;;;;4877201;29;20520;-68
2021/03/23 11:09:55;;;;;;;39.33;19.53;;;9.00;83.70;;;;;;4880136;29;20136;-69
2021/03/23 11:12:22;;;;;;;42.35;20.17;;;9.10;83.80;;;;;;4881407;29;20077;-68
2021/03/23 11:14:49;;;;;;;41.58;20.35;;;9.10;83.60;;;;;;4878531;29;20072;-68
2021/03/23 11:17:21;;;;;;;42.63;21.58;;;9.10;83.50;;;;;;4887033;29;20053;-68
2021/03/23 11:19:55;;;;;;;37.00;17.70;;;9.10;83.40;;;;;;4889458;29;20124;-68
2021/03/23 11:22:33;;;;;;;37.67;20.15;;;9.20;83.50;;;;;;4888612;29;20109;-68
2021/03/23 11:25:01;;;;;;;32.97;18.67;;;9.30;83.30;;;;;;4884629;29;20049;-69
2021/03/23 11:27:28;;;;;;;32.33;16.50;;;9.30;83.30;;;;;;4880665;29;20125;-69
2021/03/23 11:29:56;;;;;;;29.38;16.45;;;9.30;83.30;;;;;;4875041;29;20053;-68
2021/03/23 11:32:23;;;;;;;29.65;14.82;;;9.50;83.20;;;;;;4894776;29;20061;-69
2021/03/23 11:34:51;;;;;;;34.28;18.02;;;9.60;83.50;;;;;;4871528;29;20409;-68
2021/03/23 11:37:18;;;;;;;35.15;18.60;;;9.70;82.60;;;;;;4877426;29;20070;-69
2021/03/23 11:39:45;;;;;;;34.25;18.08;;;9.70;82.50;;;;;;4879997;29;20056;-70
2021/03/23 11:42:43;;;;;;;31.58;16.55;;;9.70;82.40;;;;;;4874933;29;20063;-69
2021/03/23 11:45:18;;;;;;;36.20;18.88;;;9.70;82.50;;;;;;4872609;29;20097;-69
2021/03/23 11:47:54;;;;;;;37.88;18.95;;;9.70;82.30;;;;;;4868647;29;20540;-72
2021/03/23 11:50:28;;;;;;;33.08;16.90;;;9.70;82.40;;;;;;4874906;29;20049;-72
2021/03/23 11:52:56;;;;;;;38.88;20.00;;;9.70;82.50;;;;;;4877938;29;20052;-69
2021/03/23 11:55:36;;;;;;;35.35;18.98;;;9.70;82.30;;;;;;4874555;29;20053;-69
2021/03/23 11:58:04;;;;;;;39.25;19.35;;;9.70;82.40;;;;;;4880181;29;20097;-69
2021/03/23 12:00:32;;;;;;;37.67;20.05;;;9.80;82.30;;;;;;4869872;29;20046;-69
2021/03/23 12:03:01;;;;;;;36.67;18.60;;;9.80;82.30;;;;;;4871236;29;20049;-69
2021/03/23 12:05:29;;;;;;;35.47;18.50;;;9.80;82.20;;;;;;4876238;29;20409;-69
2021/03/23 12:08:27;;;;;;;36.08;19.58;;;9.90;82.20;;;;;;4874291;29;20489;-73
2021/03/23 12:11:20;;;;;;;35.88;20.67;;;9.90;82.00;;;;;;4871886;29;20527;-69
2021/03/23 12:14:10;;;;;;;37.75;19.63;;;9.90;82.00;;;;;;4876141;29;20052;-69
2021/03/23 12:17:02;;;;;;;37.67;19.52;;;10.00;82.00;;;;;;4877614;29;20037;-68
2021/03/23 12:19:36;;;;;;;36.35;19.67;;;10.00;81.90;;;;;;4877808;29;20045;-72
2021/03/23 12:22:03;;;;;;;29.65;16.88;;;10.00;81.90;;;;;;4866756;29;20064;-70
2021/03/23 12:24:30;;;;;;;30.73;17.23;;;10.10;81.90;;;;;;4872375;29;20049;-69
2021/03/23 12:26:57;;;;;;;35.13;18.08;;;10.10;81.70;;;;;;4858642;29;20108;-72
2021/03/23 12:29:23;;;;;;;34.20;18.08;;;10.20;81.50;;;;;;4881244;29;20045;-69
2021/03/23 12:31:50;;;;;;;40.40;19.83;;;10.20;81.30;;;;;;4867616;29;20041;-69
2021/03/23 12:34:18;;;;;;;35.30;19.95;;;10.30;81.10;;;;;;4886972;29;20037;-69
2021/03/23 12:36:45;;;;;;;39.53;19.67;;;10.30;81.20;;;;;;4873793;29;20067;-69
2021/03/23 12:39:16;;;;;;;36.08;18.77;;;10.30;81.10;;;;;;4875752;29;20040;-69
2021/03/23 12:41:43;;;;;;;31.17;16.77;;;10.30;81.00;;;;;;4875697;29;20525;-69
2021/03/23 12:44:11;;;;;;;28.35;15.57;;;10.30;81.10;;;;;;4869684;29;20715;-69
2021/03/23 12:46:38;;;;;;;43.05;19.48;;;10.30;81.40;;;;;;4873696;29;20450;-69
2021/03/23 12:49:05;;;;;;;35.05;18.25;;;10.30;81.10;;;;;;4875181;29;20401;-69
2021/03/23 12:51:39;;;;;;;33.08;16.83;;;10.40;81.10;;;;;;4875748;29;20101;-69
2021/03/23 12:54:14;;;;;;;36.58;17.88;;;10.40;81.10;;;;;;4879020;29;20076;-69
2021/03/23 12:56:40;;;;;;;36.15;19.08;;;10.40;81.00;;;;;;4886293;29;20529;-69
2021/03/23 12:59:25;;;;;;;35.95;18.35;;;10.40;80.80;;;;;;4868524;29;20041;-69
2021/03/23 13:01:53;;;;;;;33.00;16.60;;;10.30;80.90;;;;;;4870344;29;20045;-69
2021/03/23 13:04:22;;;;;;;31.92;17.58;;;10.40;81.10;;;;;;4871879;29;20389;-69
2021/03/23 13:06:55;;;;;;;37.65;19.65;;;10.40;80.90;;;;;;4874516;29;20085;-70
2021/03/23 13:09:23;;;;;;;35.05;19.80;;;10.50;81.30;;;;;;4871186;29;20056;-72
2021/03/23 13:11:51;;;;;;;34.97;18.80;;;10.50;80.70;;;;;;4865309;29;20045;-72
2021/03/23 13:14:21;;;;;;;32.63;17.02;;;10.50;80.70;;;;;;4871444;29;20546;-72
2021/03/23 13:16:49;;;;;;;38.97;18.80;;;10.50;80.80;;;;;;4874627;29;20041;-72
2021/03/23 13:19:16;;;;;;;36.22;18.67;;;10.50;80.80;;;;;;4883587;29;20045;-69
2021/03/23 13:22:14;;;;;;;38.88;19.58;;;10.60;80.70;;;;;;4873825;29;20048;-73